sensor_id;sensor_type;location;lat;lon;timestamp;P1;durP1;ratioP1;P2;durP2;ratioP2
38513;SDS011;24282;48.400;10.808;2024-01-10T00:01:34;21.67;;;13.83;;
38513;SDS011;24282;48.400;10.808;2024-01-10T00:03:59;20.73;;;13.20;;
38513;SDS011;24282;48.400;10.808;2024-01-10T00:06:25;19.83;;;12.50;;
38513;SDS011;24282;48.400;10.808;2024-01-10T00:08:51;25.27;;;15.00;;
38513;SDS011;24282;48.400;10.808;2024-01-10T00:11:17;22.50;;;13.43;;
38513;SDS011;24282;48.400;10.808;2024-01-10T00:13:43;21.17;;;13.97;;
38513;SDS011;24282;48.400;10.808;2024-01-10T00:16:11;21.40;;;12.93;;
38513;SDS011;24282;48.400;10.808;2024-01-10T00:18:38;21.50;;;13.63;;
38513;SDS011;24282;48.400;10.808;2024-01-10T00:21:05;21.80;;;13.27;;
38513;SDS011;24282;48.400;10.808;2024-01-10T00:23:31;24.40;;;14.93;;
38513;SDS011;24282;48.400;10.808;2024-01-10T00:25:57;21.67;;;13.83;;
38513;SDS011;24282;48.400;10.808;2024-01-10T00:28:23;24.13;;;13.30;;
38513;SDS011;24282;48.400;10.808;2024-01-10T00:30:49;25.70;;;15.13;;
38513;SDS011;24282;48.400;10.808;2024-01-10T00:33:15;22.30;;;14.43;;
38513;SDS011;24282;48.400;10.808;2024-01-10T00:35:41;33.33;;;16.93;;
38513;SDS011;24282;48.400;10.808;2024-01-10T00:38:07;28.17;;;15.83;;
38513;SDS011;24282;48.400;10.808;2024-01-10T00:40:32;26.53;;;15.63;;
38513;SDS011;24282;48.400;10.808;2024-01-10T00:42:58;27.97;;;16.87;;
38513;SDS011;24282;48.400;10.808;2024-01-10T00:45:24;28.40;;;16.70;;
38513;SDS011;24282;48.400;10.808;2024-01-10T00:47:50;32.33;;;16.80;;
38513;SDS011;24282;48.400;10.808;2024-01-10T00:50:16;25.40;;;15.27;;
38513;SDS011;24282;48.400;10.808;2024-01-10T00:52:42;25.20;;;15.57;;
38513;SDS011;24282;48.400;10.808;2024-01-10T00:55:09;24.80;;;14.80;;
38513;SDS011;24282;48.400;10.808;2024-01-10T00:57:34;22.67;;;13.73;;
38513;SDS011;24282;48.400;10.808;2024-01-10T01:00:00;23.13;;;13.63;;
38513;SDS011;24282;48.400;10.808;2024-01-10T01:02:27;26.87;;;15.40;;
38513;SDS011;24282;48.400;10.808;2024-01-10T01:04:52;23.33;;;14.23;;
38513;SDS011;24282;48.400;10.808;2024-01-10T01:07:18;23.40;;;13.80;;
38513;SDS011;24282;48.400;10.808;2024-01-10T01:09:43;24.43;;;14.87;;
38513;SDS011;24282;48.400;10.808;2024-01-10T01:12:09;25.73;;;15.07;;
38513;SDS011;24282;48.400;10.808;2024-01-10T01:14:35;23.13;;;14.40;;
38513;SDS011;24282;48.400;10.808;2024-01-10T01:17:01;25.40;;;14.80;;
38513;SDS011;24282;48.400;10.808;2024-01-10T01:19:26;25.17;;;14.37;;
38513;SDS011;24282;48.400;10.808;2024-01-10T01:21:52;23.97;;;15.33;;
38513;SDS011;24282;48.400;10.808;2024-01-10T01:24:18;26.83;;;14.60;;
38513;SDS011;24282;48.400;10.808;2024-01-10T01:26:44;23.37;;;14.20;;
38513;SDS011;24282;48.400;10.808;2024-01-10T01:29:09;24.37;;;14.93;;
38513;SDS011;24282;48.400;10.808;2024-01-10T01:31:35;23.87;;;15.17;;
38513;SDS011;24282;48.400;10.808;2024-01-10T01:34:02;26.07;;;15.13;;
38513;SDS011;24282;48.400;10.808;2024-01-10T01:36:27;23.77;;;16.00;;
38513;SDS011;24282;48.400;10.808;2024-01-10T01:38:53;24.17;;;14.87;;
38513;SDS011;24282;48.400;10.808;2024-01-10T01:41:19;25.50;;;16.00;;
38513;SDS011;24282;48.400;10.808;2024-01-10T01:43:44;24.00;;;15.37;;
38513;SDS011;24282;48.400;10.808;2024-01-10T01:46:11;21.97;;;14.40;;
38513;SDS011;24282;48.400;10.808;2024-01-10T01:48:37;28.97;;;16.27;;
38513;SDS011;24282;48.400;10.808;2024-01-10T01:51:06;23.00;;;14.57;;
38513;SDS011;24282;48.400;10.808;2024-01-10T01:53:35;22.43;;;13.97;;
38513;SDS011;24282;48.400;10.808;2024-01-10T01:56:03;23.67;;;13.40;;
38513;SDS011;24282;48.400;10.808;2024-01-10T01:58:31;21.03;;;13.30;;
38513;SDS011;24282;48.400;10.808;2024-01-10T02:00:58;27.17;;;16.70;;
38513;SDS011;24282;48.400;10.808;2024-01-10T02:03:24;22.07;;;14.33;;
38513;SDS011;24282;48.400;10.808;2024-01-10T02:05:51;21.13;;;13.10;;
38513;SDS011;24282;48.400;10.808;2024-01-10T02:08:18;21.20;;;13.93;;
38513;SDS011;24282;48.400;10.808;2024-01-10T02:10:44;22.83;;;14.40;;
38513;SDS011;24282;48.400;10.808;2024-01-10T02:13:10;20.87;;;13.90;;
38513;SDS011;24282;48.400;10.808;2024-01-10T02:15:37;22.30;;;14.97;;
38513;SDS011;24282;48.400;10.808;2024-01-10T02:18:03;21.67;;;14.27;;
38513;SDS011;24282;48.400;10.808;2024-01-10T02:20:30;25.47;;;14.40;;
38513;SDS011;24282;48.400;10.808;2024-01-10T02:22:57;21.63;;;13.77;;
38513;SDS011;24282;48.400;10.808;2024-01-10T02:25:22;24.67;;;14.27;;
38513;SDS011;24282;48.400;10.808;2024-01-10T02:27:48;24.37;;;15.20;;
38513;SDS011;24282;48.400;10.808;2024-01-10T02:30:14;22.07;;;13.87;;
38513;SDS011;24282;48.400;10.808;2024-01-10T02:32:40;20.77;;;13.23;;
38513;SDS011;24282;48.400;10.808;2024-01-10T02:35:06;22.17;;;14.33;;
38513;SDS011;24282;48.400;10.808;2024-01-10T02:37:33;27.80;;;15.60;;
38513;SDS011;24282;48.400;10.808;2024-01-10T02:39:59;26.10;;;14.63;;
38513;SDS011;24282;48.400;10.808;2024-01-10T02:42:26;22.67;;;15.00;;
38513;SDS011;24282;48.400;10.808;2024-01-10T02:44:52;24.47;;;14.93;;
38513;SDS011;24282;48.400;10.808;2024-01-10T02:47:18;23.13;;;14.27;;
38513;SDS011;24282;48.400;10.808;2024-01-10T02:49:44;25.50;;;15.90;;
38513;SDS011;24282;48.400;10.808;2024-01-10T02:52:09;22.70;;;15.17;;
38513;SDS011;24282;48.400;10.808;2024-01-10T02:54:35;25.33;;;15.50;;
38513;SDS011;24282;48.400;10.808;2024-01-10T02:57:01;22.63;;;13.57;;
38513;SDS011;24282;48.400;10.808;2024-01-10T02:59:27;24.13;;;15.17;;
38513;SDS011;24282;48.400;10.808;2024-01-10T03:01:53;26.53;;;15.90;;
38513;SDS011;24282;48.400;10.808;2024-01-10T03:04:19;20.90;;;13.50;;
38513;SDS011;24282;48.400;10.808;2024-01-10T03:06:44;22.27;;;14.33;;
38513;SDS011;24282;48.400;10.808;2024-01-10T03:09:10;23.50;;;14.43;;
38513;SDS011;24282;48.400;10.808;2024-01-10T03:11:36;22.27;;;13.93;;
38513;SDS011;24282;48.400;10.808;2024-01-10T03:14:08;25.67;;;14.60;;
38513;SDS011;24282;48.400;10.808;2024-01-10T03:16:35;24.85;;;13.25;;
38513;SDS011;24282;48.400;10.808;2024-01-10T03:19:01;21.33;;;13.47;;
38513;SDS011;24282;48.400;10.808;2024-01-10T03:21:27;22.80;;;13.63;;
38513;SDS011;24282;48.400;10.808;2024-01-10T03:23:55;20.73;;;13.57;;
38513;SDS011;24282;48.400;10.808;2024-01-10T03:26:22;20.13;;;13.43;;
38513;SDS011;24282;48.400;10.808;2024-01-10T03:28:48;23.10;;;14.10;;
38513;SDS011;24282;48.400;10.808;2024-01-10T03:31:14;23.67;;;13.87;;
38513;SDS011;24282;48.400;10.808;2024-01-10T03:33:40;22.10;;;13.57;;
38513;SDS011;24282;48.400;10.808;2024-01-10T03:36:06;21.60;;;13.73;;
38513;SDS011;24282;48.400;10.808;2024-01-10T03:38:34;21.87;;;13.83;;
38513;SDS011;24282;48.400;10.808;2024-01-10T03:41:00;23.43;;;14.43;;
38513;SDS011;24282;48.400;10.808;2024-01-10T03:43:26;23.00;;;14.57;;
38513;SDS011;24282;48.400;10.808;2024-01-10T03:45:52;23.00;;;13.97;;
38513;SDS011;24282;48.400;10.808;2024-01-10T03:48:17;21.57;;;14.00;;
38513;SDS011;24282;48.400;10.808;2024-01-10T03:50:43;23.60;;;14.17;;
38513;SDS011;24282;48.400;10.808;2024-01-10T03:53:09;20.63;;;13.50;;
38513;SDS011;24282;48.400;10.808;2024-01-10T03:55:34;21.57;;;13.77;;
38513;SDS011;24282;48.400;10.808;2024-01-10T03:58:00;18.13;;;13.03;;
38513;SDS011;24282;48.400;10.808;2024-01-10T04:00:25;19.67;;;13.13;;
38513;SDS011;24282;48.400;10.808;2024-01-10T04:02:52;23.30;;;14.50;;
38513;SDS011;24282;48.400;10.808;2024-01-10T04:05:18;21.80;;;14.47;;
38513;SDS011;24282;48.400;10.808;2024-01-10T04:07:45;24.97;;;13.60;;
38513;SDS011;24282;48.400;10.808;2024-01-10T04:10:12;25.20;;;15.60;;
38513;SDS011;24282;48.400;10.808;2024-01-10T04:12:45;24.50;;;15.60;;
38513;SDS011;24282;48.400;10.808;2024-01-10T04:15:11;23.70;;;15.47;;
38513;SDS011;24282;48.400;10.808;2024-01-10T04:17:37;24.47;;;15.30;;
38513;SDS011;24282;48.400;10.808;2024-01-10T04:20:03;23.80;;;16.33;;
38513;SDS011;24282;48.400;10.808;2024-01-10T04:22:30;22.33;;;15.57;;
38513;SDS011;24282;48.400;10.808;2024-01-10T04:25:00;27.57;;;15.80;;
38513;SDS011;24282;48.400;10.808;2024-01-10T04:27:26;23.57;;;16.10;;
38513;SDS011;24282;48.400;10.808;2024-01-10T04:29:53;22.93;;;16.60;;
38513;SDS011;24282;48.400;10.808;2024-01-10T04:32:19;25.33;;;15.83;;
38513;SDS011;24282;48.400;10.808;2024-01-10T04:34:45;24.97;;;15.73;;
38513;SDS011;24282;48.400;10.808;2024-01-10T04:37:11;22.27;;;14.13;;
38513;SDS011;24282;48.400;10.808;2024-01-10T04:39:36;23.37;;;14.70;;
38513;SDS011;24282;48.400;10.808;2024-01-10T04:42:05;24.37;;;16.63;;
38513;SDS011;24282;48.400;10.808;2024-01-10T04:44:31;26.97;;;16.67;;
38513;SDS011;24282;48.400;10.808;2024-01-10T04:46:57;26.53;;;17.67;;
38513;SDS011;24282;48.400;10.808;2024-01-10T04:49:23;29.80;;;17.87;;
38513;SDS011;24282;48.400;10.808;2024-01-10T04:51:49;28.20;;;17.97;;
38513;SDS011;24282;48.400;10.808;2024-01-10T04:54:15;33.30;;;20.10;;
38513;SDS011;24282;48.400;10.808;2024-01-10T04:56:41;34.57;;;21.57;;
38513;SDS011;24282;48.400;10.808;2024-01-10T04:59:07;31.37;;;20.17;;
38513;SDS011;24282;48.400;10.808;2024-01-10T05:01:32;32.57;;;20.20;;
38513;SDS011;24282;48.400;10.808;2024-01-10T05:03:58;30.63;;;18.27;;
38513;SDS011;24282;48.400;10.808;2024-01-10T05:06:24;29.07;;;19.80;;
38513;SDS011;24282;48.400;10.808;2024-01-10T05:08:50;25.87;;;17.17;;
38513;SDS011;24282;48.400;10.808;2024-01-10T05:11:16;30.47;;;19.40;;
38513;SDS011;24282;48.400;10.808;2024-01-10T05:13:42;29.23;;;18.27;;
38513;SDS011;24282;48.400;10.808;2024-01-10T05:16:08;29.90;;;20.07;;
38513;SDS011;24282;48.400;10.808;2024-01-10T05:18:34;31.57;;;20.20;;
38513;SDS011;24282;48.400;10.808;2024-01-10T05:21:00;29.57;;;17.33;;
38513;SDS011;24282;48.400;10.808;2024-01-10T05:23:26;28.60;;;18.87;;
38513;SDS011;24282;48.400;10.808;2024-01-10T05:25:53;31.53;;;19.67;;
38513;SDS011;24282;48.400;10.808;2024-01-10T05:28:19;29.60;;;18.33;;
38513;SDS011;24282;48.400;10.808;2024-01-10T05:30:44;28.40;;;17.70;;
38513;SDS011;24282;48.400;10.808;2024-01-10T05:33:10;33.10;;;19.77;;
38513;SDS011;24282;48.400;10.808;2024-01-10T05:35:36;29.90;;;19.60;;
38513;SDS011;24282;48.400;10.808;2024-01-10T05:38:05;31.83;;;19.63;;
38513;SDS011;24282;48.400;10.808;2024-01-10T05:40:32;29.67;;;19.27;;
38513;SDS011;24282;48.400;10.808;2024-01-10T05:42:58;29.57;;;18.70;;
38513;SDS011;24282;48.400;10.808;2024-01-10T05:45:27;29.53;;;19.30;;
38513;SDS011;24282;48.400;10.808;2024-01-10T05:47:53;30.33;;;19.13;;
38513;SDS011;24282;48.400;10.808;2024-01-10T05:50:20;31.97;;;19.80;;
38513;SDS011;24282;48.400;10.808;2024-01-10T05:52:46;30.33;;;19.10;;
38513;SDS011;24282;48.400;10.808;2024-01-10T05:55:12;30.17;;;19.33;;
38513;SDS011;24282;48.400;10.808;2024-01-10T05:57:38;32.07;;;19.60;;
38513;SDS011;24282;48.400;10.808;2024-01-10T06:00:04;29.07;;;18.43;;
38513;SDS011;24282;48.400;10.808;2024-01-10T06:02:38;29.93;;;19.17;;
38513;SDS011;24282;48.400;10.808;2024-01-10T06:05:13;28.73;;;19.87;;
38513;SDS011;24282;48.400;10.808;2024-01-10T06:07:39;28.83;;;19.03;;
38513;SDS011;24282;48.400;10.808;2024-01-10T06:10:06;30.10;;;19.53;;
38513;SDS011;24282;48.400;10.808;2024-01-10T06:12:32;29.40;;;18.07;;
38513;SDS011;24282;48.400;10.808;2024-01-10T06:14:58;31.07;;;18.67;;
38513;SDS011;24282;48.400;10.808;2024-01-10T06:17:24;28.20;;;19.13;;
38513;SDS011;24282;48.400;10.808;2024-01-10T06:19:50;25.80;;;17.60;;
38513;SDS011;24282;48.400;10.808;2024-01-10T06:22:16;31.60;;;18.80;;
38513;SDS011;24282;48.400;10.808;2024-01-10T06:24:44;26.73;;;18.33;;
38513;SDS011;24282;48.400;10.808;2024-01-10T06:27:10;30.77;;;18.40;;
38513;SDS011;24282;48.400;10.808;2024-01-10T06:29:36;28.00;;;18.77;;
38513;SDS011;24282;48.400;10.808;2024-01-10T06:32:02;26.63;;;17.77;;
38513;SDS011;24282;48.400;10.808;2024-01-10T06:34:31;30.77;;;19.07;;
38513;SDS011;24282;48.400;10.808;2024-01-10T06:36:57;26.03;;;17.90;;
38513;SDS011;24282;48.400;10.808;2024-01-10T06:39:23;27.93;;;18.10;;
38513;SDS011;24282;48.400;10.808;2024-01-10T06:41:49;33.27;;;20.17;;
38513;SDS011;24282;48.400;10.808;2024-01-10T06:44:15;28.50;;;18.83;;
38513;SDS011;24282;48.400;10.808;2024-01-10T06:46:43;30.70;;;19.10;;
38513;SDS011;24282;48.400;10.808;2024-01-10T06:49:09;27.00;;;17.27;;
38513;SDS011;24282;48.400;10.808;2024-01-10T06:51:35;27.77;;;18.10;;
38513;SDS011;24282;48.400;10.808;2024-01-10T06:54:01;31.87;;;22.07;;
38513;SDS011;24282;48.400;10.808;2024-01-10T06:56:30;33.00;;;21.30;;
38513;SDS011;24282;48.400;10.808;2024-01-10T06:58:59;27.70;;;19.23;;
38513;SDS011;24282;48.400;10.808;2024-01-10T07:01:25;29.50;;;19.60;;
38513;SDS011;24282;48.400;10.808;2024-01-10T07:03:52;28.03;;;18.03;;
38513;SDS011;24282;48.400;10.808;2024-01-10T07:06:17;29.80;;;19.30;;
38513;SDS011;24282;48.400;10.808;2024-01-10T07:08:43;30.77;;;19.70;;
38513;SDS011;24282;48.400;10.808;2024-01-10T07:11:10;26.93;;;19.10;;
38513;SDS011;24282;48.400;10.808;2024-01-10T07:13:39;27.77;;;18.07;;
38513;SDS011;24282;48.400;10.808;2024-01-10T07:16:06;28.90;;;17.90;;
38513;SDS011;24282;48.400;10.808;2024-01-10T07:18:32;31.30;;;19.57;;
38513;SDS011;24282;48.400;10.808;2024-01-10T07:20:58;27.83;;;18.60;;
38513;SDS011;24282;48.400;10.808;2024-01-10T07:23:23;31.03;;;20.00;;
38513;SDS011;24282;48.400;10.808;2024-01-10T07:25:49;31.63;;;20.00;;
38513;SDS011;24282;48.400;10.808;2024-01-10T07:28:16;30.13;;;19.03;;
38513;SDS011;24282;48.400;10.808;2024-01-10T07:30:42;30.40;;;19.27;;
38513;SDS011;24282;48.400;10.808;2024-01-10T07:33:09;28.13;;;19.17;;
38513;SDS011;24282;48.400;10.808;2024-01-10T07:35:35;35.50;;;20.43;;
38513;SDS011;24282;48.400;10.808;2024-01-10T07:38:01;29.90;;;19.27;;
38513;SDS011;24282;48.400;10.808;2024-01-10T07:40:27;29.37;;;19.10;;
38513;SDS011;24282;48.400;10.808;2024-01-10T07:42:53;32.50;;;21.87;;
38513;SDS011;24282;48.400;10.808;2024-01-10T07:45:18;34.37;;;20.37;;
38513;SDS011;24282;48.400;10.808;2024-01-10T07:47:44;32.17;;;21.20;;
38513;SDS011;24282;48.400;10.808;2024-01-10T07:50:11;32.27;;;19.50;;
38513;SDS011;24282;48.400;10.808;2024-01-10T07:52:40;35.30;;;20.50;;
38513;SDS011;24282;48.400;10.808;2024-01-10T07:55:07;34.90;;;21.27;;
38513;SDS011;24282;48.400;10.808;2024-01-10T07:57:33;32.37;;;20.70;;
38513;SDS011;24282;48.400;10.808;2024-01-10T07:59:59;29.17;;;20.03;;
38513;SDS011;24282;48.400;10.808;2024-01-10T08:02:25;32.70;;;20.60;;
38513;SDS011;24282;48.400;10.808;2024-01-10T08:04:51;35.80;;;20.80;;
38513;SDS011;24282;48.400;10.808;2024-01-10T08:07:17;29.47;;;19.87;;
38513;SDS011;24282;48.400;10.808;2024-01-10T08:09:44;33.10;;;21.47;;
38513;SDS011;24282;48.400;10.808;2024-01-10T08:12:10;33.43;;;20.63;;
38513;SDS011;24282;48.400;10.808;2024-01-10T08:14:37;32.90;;;20.40;;
38513;SDS011;24282;48.400;10.808;2024-01-10T08:17:03;37.93;;;21.77;;
38513;SDS011;24282;48.400;10.808;2024-01-10T08:19:29;29.63;;;18.40;;
38513;SDS011;24282;48.400;10.808;2024-01-10T08:21:55;29.57;;;18.93;;
38513;SDS011;24282;48.400;10.808;2024-01-10T08:24:21;31.70;;;20.33;;
38513;SDS011;24282;48.400;10.808;2024-01-10T08:26:47;35.77;;;22.03;;
38513;SDS011;24282;48.400;10.808;2024-01-10T08:29:20;31.43;;;20.40;;
38513;SDS011;24282;48.400;10.808;2024-01-10T08:31:46;32.63;;;20.03;;
38513;SDS011;24282;48.400;10.808;2024-01-10T08:34:13;31.33;;;21.00;;
38513;SDS011;24282;48.400;10.808;2024-01-10T08:36:39;30.43;;;19.43;;
38513;SDS011;24282;48.400;10.808;2024-01-10T08:39:04;31.77;;;20.67;;
38513;SDS011;24282;48.400;10.808;2024-01-10T08:41:31;37.17;;;22.20;;
38513;SDS011;24282;48.400;10.808;2024-01-10T08:43:58;29.50;;;19.30;;
38513;SDS011;24282;48.400;10.808;2024-01-10T08:46:25;31.57;;;20.57;;
38513;SDS011;24282;48.400;10.808;2024-01-10T08:48:50;31.53;;;20.57;;
38513;SDS011;24282;48.400;10.808;2024-01-10T08:51:16;32.00;;;20.17;;
38513;SDS011;24282;48.400;10.808;2024-01-10T08:53:43;31.83;;;19.73;;
38513;SDS011;24282;48.400;10.808;2024-01-10T08:56:09;32.80;;;21.17;;
38513;SDS011;24282;48.400;10.808;2024-01-10T08:58:35;31.37;;;20.47;;
38513;SDS011;24282;48.400;10.808;2024-01-10T09:01:02;34.57;;;20.43;;
38513;SDS011;24282;48.400;10.808;2024-01-10T09:03:29;28.87;;;20.07;;
38513;SDS011;24282;48.400;10.808;2024-01-10T09:05:55;33.67;;;20.10;;
38513;SDS011;24282;48.400;10.808;2024-01-10T09:08:21;30.53;;;19.77;;
38513;SDS011;24282;48.400;10.808;2024-01-10T09:10:47;30.43;;;19.73;;
38513;SDS011;24282;48.400;10.808;2024-01-10T09:13:14;32.83;;;20.73;;
38513;SDS011;24282;48.400;10.808;2024-01-10T09:15:40;32.73;;;20.67;;
38513;SDS011;24282;48.400;10.808;2024-01-10T09:18:06;34.43;;;20.73;;
38513;SDS011;24282;48.400;10.808;2024-01-10T09:20:32;30.77;;;19.70;;
38513;SDS011;24282;48.400;10.808;2024-01-10T09:22:58;32.13;;;21.37;;
38513;SDS011;24282;48.400;10.808;2024-01-10T09:25:25;34.70;;;21.33;;
38513;SDS011;24282;48.400;10.808;2024-01-10T09:27:51;31.70;;;20.93;;
38513;SDS011;24282;48.400;10.808;2024-01-10T09:30:17;34.17;;;20.93;;
38513;SDS011;24282;48.400;10.808;2024-01-10T09:32:43;33.07;;;20.97;;
38513;SDS011;24282;48.400;10.808;2024-01-10T09:35:10;36.10;;;21.40;;
38513;SDS011;24282;48.400;10.808;2024-01-10T09:37:35;34.57;;;21.90;;
38513;SDS011;24282;48.400;10.808;2024-01-10T09:40:01;33.13;;;21.73;;
38513;SDS011;24282;48.400;10.808;2024-01-10T09:42:27;33.47;;;21.10;;
38513;SDS011;24282;48.400;10.808;2024-01-10T09:44:57;35.33;;;22.23;;
38513;SDS011;24282;48.400;10.808;2024-01-10T09:47:23;32.73;;;20.57;;
38513;SDS011;24282;48.400;10.808;2024-01-10T09:49:49;33.20;;;21.50;;
38513;SDS011;24282;48.400;10.808;2024-01-10T09:52:25;34.20;;;21.27;;
38513;SDS011;24282;48.400;10.808;2024-01-10T09:54:56;33.37;;;21.57;;
38513;SDS011;24282;48.400;10.808;2024-01-10T09:57:26;33.50;;;21.43;;
38513;SDS011;24282;48.400;10.808;2024-01-10T09:59:52;33.90;;;21.13;;
38513;SDS011;24282;48.400;10.808;2024-01-10T10:02:21;35.17;;;22.57;;
38513;SDS011;24282;48.400;10.808;2024-01-10T10:05:05;33.60;;;21.27;;
38513;SDS011;24282;48.400;10.808;2024-01-10T10:07:46;34.10;;;21.60;;
38513;SDS011;24282;48.400;10.808;2024-01-10T10:10:13;31.53;;;20.50;;
38513;SDS011;24282;48.400;10.808;2024-01-10T10:15:18;34.27;;;21.60;;
38513;SDS011;24282;48.400;10.808;2024-01-10T10:17:47;37.17;;;21.63;;
38513;SDS011;24282;48.400;10.808;2024-01-10T10:20:14;34.17;;;22.87;;
38513;SDS011;24282;48.400;10.808;2024-01-10T10:25:29;36.63;;;22.23;;
38513;SDS011;24282;48.400;10.808;2024-01-10T10:28:01;33.23;;;20.57;;
38513;SDS011;24282;48.400;10.808;2024-01-10T10:30:28;35.83;;;23.13;;
38513;SDS011;24282;48.400;10.808;2024-01-10T10:32:55;35.73;;;22.20;;
38513;SDS011;24282;48.400;10.808;2024-01-10T10:35:21;32.47;;;20.83;;
38513;SDS011;24282;48.400;10.808;2024-01-10T10:37:48;38.73;;;24.73;;
38513;SDS011;24282;48.400;10.808;2024-01-10T10:40:15;36.77;;;22.03;;
38513;SDS011;24282;48.400;10.808;2024-01-10T10:42:49;34.93;;;21.23;;
38513;SDS011;24282;48.400;10.808;2024-01-10T10:45:22;37.67;;;22.23;;
38513;SDS011;24282;48.400;10.808;2024-01-10T10:47:53;33.73;;;21.73;;
38513;SDS011;24282;48.400;10.808;2024-01-10T10:50:28;38.03;;;23.53;;
38513;SDS011;24282;48.400;10.808;2024-01-10T10:52:59;37.30;;;23.70;;
38513;SDS011;24282;48.400;10.808;2024-01-10T10:55:30;35.40;;;23.10;;
38513;SDS011;24282;48.400;10.808;2024-01-10T10:57:58;37.93;;;23.50;;
38513;SDS011;24282;48.400;10.808;2024-01-10T11:00:26;38.23;;;23.67;;
38513;SDS011;24282;48.400;10.808;2024-01-10T11:02:53;39.83;;;23.70;;
38513;SDS011;24282;48.400;10.808;2024-01-10T11:05:20;35.80;;;23.00;;
38513;SDS011;24282;48.400;10.808;2024-01-10T11:07:47;35.80;;;22.43;;
38513;SDS011;24282;48.400;10.808;2024-01-10T11:10:16;39.07;;;24.10;;
38513;SDS011;24282;48.400;10.808;2024-01-10T11:26:13;33.13;;;21.70;;
38513;SDS011;24282;48.400;10.808;2024-01-10T11:28:40;38.80;;;23.07;;
38513;SDS011;24282;48.400;10.808;2024-01-10T11:31:07;36.93;;;23.80;;
38513;SDS011;24282;48.400;10.808;2024-01-10T11:33:34;34.03;;;21.67;;
38513;SDS011;24282;48.400;10.808;2024-01-10T11:36:16;34.67;;;22.13;;
38513;SDS011;24282;48.400;10.808;2024-01-10T11:38:49;36.97;;;22.40;;
38513;SDS011;24282;48.400;10.808;2024-01-10T11:41:26;37.43;;;23.93;;
38513;SDS011;24282;48.400;10.808;2024-01-10T11:46:55;34.07;;;22.03;;
38513;SDS011;24282;48.400;10.808;2024-01-10T11:49:22;36.42;;;22.73;;
38513;SDS011;24282;48.400;10.808;2024-01-10T11:51:50;35.70;;;22.63;;
38513;SDS011;24282;48.400;10.808;2024-01-10T11:57:22;38.13;;;22.43;;
38513;SDS011;24282;48.400;10.808;2024-01-10T11:59:55;35.43;;;21.70;;
38513;SDS011;24282;48.400;10.808;2024-01-10T12:02:24;33.83;;;22.40;;
38513;SDS011;24282;48.400;10.808;2024-01-10T12:04:51;35.47;;;23.30;;
38513;SDS011;24282;48.400;10.808;2024-01-10T12:07:17;35.60;;;21.83;;
38513;SDS011;24282;48.400;10.808;2024-01-10T12:09:44;37.40;;;24.13;;
38513;SDS011;24282;48.400;10.808;2024-01-10T12:12:10;32.53;;;21.57;;
38513;SDS011;24282;48.400;10.808;2024-01-10T12:14:37;44.00;;;25.07;;
38513;SDS011;24282;48.400;10.808;2024-01-10T12:17:05;40.73;;;25.27;;
38513;SDS011;24282;48.400;10.808;2024-01-10T12:19:33;36.13;;;23.17;;
38513;SDS011;24282;48.400;10.808;2024-01-10T12:22:01;37.07;;;21.90;;
38513;SDS011;24282;48.400;10.808;2024-01-10T12:24:29;39.33;;;25.03;;
38513;SDS011;24282;48.400;10.808;2024-01-10T12:26:56;33.13;;;22.73;;
38513;SDS011;24282;48.400;10.808;2024-01-10T12:29:22;34.43;;;22.03;;
38513;SDS011;24282;48.400;10.808;2024-01-10T12:31:48;38.93;;;24.67;;
38513;SDS011;24282;48.400;10.808;2024-01-10T12:34:14;38.07;;;25.10;;
38513;SDS011;24282;48.400;10.808;2024-01-10T12:36:40;33.67;;;22.73;;
38513;SDS011;24282;48.400;10.808;2024-01-10T12:39:07;36.63;;;23.30;;
38513;SDS011;24282;48.400;10.808;2024-01-10T12:41:33;33.73;;;22.33;;
38513;SDS011;24282;48.400;10.808;2024-01-10T12:44:00;36.70;;;23.53;;
38513;SDS011;24282;48.400;10.808;2024-01-10T12:46:28;34.13;;;22.87;;
38513;SDS011;24282;48.400;10.808;2024-01-10T12:48:59;37.67;;;24.87;;
38513;SDS011;24282;48.400;10.808;2024-01-10T12:51:33;32.60;;;21.90;;
38513;SDS011;24282;48.400;10.808;2024-01-10T12:54:01;34.07;;;22.47;;
38513;SDS011;24282;48.400;10.808;2024-01-10T12:56:29;32.97;;;22.33;;
38513;SDS011;24282;48.400;10.808;2024-01-10T12:58:55;35.30;;;22.50;;
38513;SDS011;24282;48.400;10.808;2024-01-10T13:01:22;30.90;;;21.17;;
38513;SDS011;24282;48.400;10.808;2024-01-10T13:03:48;34.40;;;22.63;;
38513;SDS011;24282;48.400;10.808;2024-01-10T13:06:15;33.20;;;21.37;;
38513;SDS011;24282;48.400;10.808;2024-01-10T13:08:42;29.50;;;20.37;;
38513;SDS011;24282;48.400;10.808;2024-01-10T13:11:07;30.27;;;20.43;;
38513;SDS011;24282;48.400;10.808;2024-01-10T13:13:37;32.63;;;21.70;;
38513;SDS011;24282;48.400;10.808;2024-01-10T13:16:03;31.13;;;21.23;;
38513;SDS011;24282;48.400;10.808;2024-01-10T13:18:29;30.93;;;20.47;;
38513;SDS011;24282;48.400;10.808;2024-01-10T13:20:55;34.80;;;22.13;;
38513;SDS011;24282;48.400;10.808;2024-01-10T13:23:22;31.27;;;21.27;;
38513;SDS011;24282;48.400;10.808;2024-01-10T13:25:48;32.83;;;22.93;;
38513;SDS011;24282;48.400;10.808;2024-01-10T13:28:14;37.30;;;22.37;;
38513;SDS011;24282;48.400;10.808;2024-01-10T13:30:40;30.53;;;20.17;;
38513;SDS011;24282;48.400;10.808;2024-01-10T13:33:08;33.47;;;22.10;;
38513;SDS011;24282;48.400;10.808;2024-01-10T13:35:35;35.97;;;22.63;;
38513;SDS011;24282;48.400;10.808;2024-01-10T13:38:01;35.67;;;22.93;;
38513;SDS011;24282;48.400;10.808;2024-01-10T13:40:28;33.07;;;21.27;;
38513;SDS011;24282;48.400;10.808;2024-01-10T13:42:53;32.47;;;21.70;;
38513;SDS011;24282;48.400;10.808;2024-01-10T13:45:19;31.57;;;21.27;;
38513;SDS011;24282;48.400;10.808;2024-01-10T13:47:45;33.33;;;22.20;;
38513;SDS011;24282;48.400;10.808;2024-01-10T13:50:12;33.27;;;22.50;;
38513;SDS011;24282;48.400;10.808;2024-01-10T13:52:38;34.97;;;23.73;;
38513;SDS011;24282;48.400;10.808;2024-01-10T13:55:03;37.70;;;24.30;;
38513;SDS011;24282;48.400;10.808;2024-01-10T13:57:30;35.70;;;21.47;;
38513;SDS011;24282;48.400;10.808;2024-01-10T13:59:57;34.00;;;22.90;;
38513;SDS011;24282;48.400;10.808;2024-01-10T14:02:26;36.90;;;23.73;;
38513;SDS011;24282;48.400;10.808;2024-01-10T14:04:52;35.43;;;23.53;;
38513;SDS011;24282;48.400;10.808;2024-01-10T14:07:19;37.53;;;24.27;;
38513;SDS011;24282;48.400;10.808;2024-01-10T14:09:45;35.13;;;22.93;;
38513;SDS011;24282;48.400;10.808;2024-01-10T14:12:14;35.10;;;23.97;;
38513;SDS011;24282;48.400;10.808;2024-01-10T14:14:40;35.47;;;21.87;;
38513;SDS011;24282;48.400;10.808;2024-01-10T14:17:06;32.10;;;21.90;;
38513;SDS011;24282;48.400;10.808;2024-01-10T14:19:31;37.03;;;24.17;;
38513;SDS011;24282;48.400;10.808;2024-01-10T14:21:57;37.40;;;23.67;;
38513;SDS011;24282;48.400;10.808;2024-01-10T14:24:23;36.93;;;24.27;;
38513;SDS011;24282;48.400;10.808;2024-01-10T14:26:49;33.23;;;22.87;;
38513;SDS011;24282;48.400;10.808;2024-01-10T14:29:15;36.47;;;22.83;;
38513;SDS011;24282;48.400;10.808;2024-01-10T14:31:41;36.73;;;23.70;;